Time;durP1;ratioP1;P1;durP2;ratioP2;P2;SDS_P1;SDS_P2;PMS_P1;PMS_P2;Temp;Humidity;BMP_temperature;BMP_pressure;BME280_temperature;BME280_humidity;BME280_pressure;Samples;Min_cycle;Max_cycle;Signal;HPM_P1;HPM_P2
2022/09/14 00:01:24;;;;;;;4.63;2.87;;;;;;;;;;5036490;28;20266;-74
2022/09/14 00:03:55;;;;;;;6.40;2.80;;;;;;;;;;5053080;28;20199;-74
2022/09/14 00:06:23;;;;;;;5.13;2.90;;;;;;;;;;5056477;28;20826;-74
2022/09/14 00:08:52;;;;;;;7.83;3.30;;;;;;;;;;5056302;28;20214;-73
2022/09/14 00:11:23;;;;;;;6.60;2.53;;;;;;;;;;5056114;28;20661;-74
2022/09/14 00:13:52;;;;;;;7.53;2.53;;;;;;;;;;5055864;28;20202;-74
2022/09/14 00:16:21;;;;;;;4.37;2.50;;;;;;;;;;5056195;28;20203;-74
2022/09/14 00:18:53;;;;;;;5.07;2.70;;;;;;;;;;5056080;28;20213;-74
2022/09/14 00:21:22;;;;;;;7.33;3.33;;;;;;;;;;5055921;28;20322;-74
2022/09/14 00:23:50;;;;;;;4.87;2.50;;;;;;;;;;5056021;28;20692;-75
2022/09/14 00:26:19;;;;;;;8.00;3.00;;;;;;;;;;5055716;28;20294;-75
2022/09/14 00:28:50;;;;;;;6.70;3.00;;;;;;;;;;5055958;28;20253;-74
2022/09/14 00:31:19;;;;;;;5.43;2.93;;;;;;;;;;5055927;28;20230;-74
2022/09/14 00:33:49;;;;;;;4.37;3.20;;;;;;;;;;5055361;28;20199;-75
2022/09/14 00:36:19;;;;;;;5.57;2.97;;;;;;;;;;5055618;28;20207;-75
2022/09/14 00:38:47;;;;;;;7.27;3.00;;;;;;;;;;5055705;28;20238;-75
2022/09/14 00:41:17;;;;;;;6.47;2.80;;;;;;;;;;5055522;28;20318;-74
2022/09/14 00:43:57;;;;;;;5.10;2.80;;;;;;;;;;5055389;28;20231;-74
2022/09/14 00:46:27;;;;;;;3.73;2.67;;;;;;;;;;5056001;28;20610;-74
2022/09/14 00:48:56;;;;;;;6.23;2.70;;;;;;;;;;5055539;28;20246;-73
2022/09/14 00:51:25;;;;;;;5.87;3.00;;;;;;;;;;5055345;28;20330;-74
2022/09/14 00:53:54;;;;;;;4.97;2.70;;;;;;;;;;5055010;28;20257;-74
2022/09/14 00:56:22;;;;;;;6.97;3.07;;;;;;;;;;5055547;28;20633;-74
2022/09/14 00:58:52;;;;;;;6.60;2.73;;;;;;;;;;5054351;28;20199;-74
2022/09/14 01:01:22;;;;;;;5.87;3.10;;;;;;;;;;5055351;28;20310;-74
2022/09/14 01:03:50;;;;;;;8.13;2.80;;;;;;;;;;5055108;28;20311;-74
2022/09/14 01:06:22;;;;;;;6.20;3.20;;;;;;;;;;5055073;28;20253;-74
2022/09/14 01:08:57;;;;;;;5.73;2.97;;;;;;;;;;5054381;28;20191;-74
2022/09/14 01:11:33;;;;;;;4.43;2.73;;;;;;;;;;5055247;28;21214;-74
2022/09/14 01:14:07;;;;;;;5.23;2.80;;;;;;;;;;5055321;28;20354;-74
2022/09/14 01:16:41;;;;;;;5.83;2.83;;;;;;;;;;5054761;28;20211;-74
2022/09/14 01:19:15;;;;;;;5.23;2.83;;;;;;;;;;5055110;28;20195;-74
2022/09/14 01:21:45;;;;;;;5.30;3.03;;;;;;;;;;5052971;28;20219;-74
2022/09/14 01:24:19;;;;;;;4.70;2.70;;;;;;;;;;5054676;28;20294;-74
2022/09/14 01:26:58;;;;;;;8.57;3.17;;;;;;;;;;5054938;28;20222;-74
2022/09/14 01:29:31;;;;;;;4.30;2.67;;;;;;;;;;5054082;28;20851;-74
2022/09/14 01:32:03;;;;;;;6.80;3.20;;;;;;;;;;5054621;28;20309;-74
2022/09/14 01:34:33;;;;;;;6.00;2.87;;;;;;;;;;5054781;28;20224;-74
2022/09/14 01:37:04;;;;;;;4.60;2.90;;;;;;;;;;5054772;28;20603;-74
2022/09/14 01:39:35;;;;;;;9.10;3.60;;;;;;;;;;5054626;28;20291;-74
2022/09/14 01:42:04;;;;;;;5.87;3.33;;;;;;;;;;5054482;28;20309;-74
2022/09/14 01:44:36;;;;;;;5.27;3.20;;;;;;;;;;5054176;28;20238;-74
2022/09/14 01:47:07;;;;;;;7.30;3.03;;;;;;;;;;5054396;28;20303;-75
2022/09/14 01:49:38;;;;;;;7.47;3.60;;;;;;;;;;5054267;28;20297;-74
2022/09/14 01:52:11;;;;;;;7.17;3.10;;;;;;;;;;5054108;28;20647;-74
2022/09/14 01:54:41;;;;;;;10.07;3.80;;;;;;;;;;5059587;28;20281;-74
2022/09/14 01:57:12;;;;;;;8.00;3.50;;;;;;;;;;5069173;28;20203;-74
2022/09/14 01:59:43;;;;;;;5.10;3.33;;;;;;;;;;5046940;28;20283;-74
2022/09/14 02:02:13;;;;;;;6.73;3.47;;;;;;;;;;5053868;28;20326;-74
2022/09/14 02:04:44;;;;;;;7.17;3.50;;;;;;;;;;5053916;28;20257;-75
2022/09/14 02:07:12;;;;;;;7.23;3.40;;;;;;;;;;5054205;28;20261;-74
2022/09/14 02:09:41;;;;;;;6.07;3.27;;;;;;;;;;5053989;28;20204;-74
2022/09/14 02:12:09;;;;;;;7.43;3.90;;;;;;;;;;5053844;28;20295;-74
2022/09/14 02:14:38;;;;;;;8.40;3.80;;;;;;;;;;5054289;28;20546;-74
2022/09/14 02:17:08;;;;;;;6.60;3.57;;;;;;;;;;5045512;28;20267;-74
2022/09/14 02:19:38;;;;;;;7.17;3.87;;;;;;;;;;5035196;28;20250;-74
2022/09/14 02:22:06;;;;;;;6.27;3.40;;;;;;;;;;5053585;28;20250;-74
2022/09/14 02:24:34;;;;;;;6.00;3.47;;;;;;;;;;5053575;28;20219;-74
2022/09/14 02:27:03;;;;;;;6.10;3.73;;;;;;;;;;5053315;28;20218;-74
2022/09/14 02:29:32;;;;;;;7.70;3.63;;;;;;;;;;5053235;28;20298;-75
2022/09/14 02:32:05;;;;;;;5.87;4.00;;;;;;;;;;5053652;28;20309;-75
2022/09/14 02:34:48;;;;;;;6.73;4.00;;;;;;;;;;5053713;28;20215;-74
2022/09/14 02:37:19;;;;;;;5.87;3.80;;;;;;;;;;5053848;28;20187;-74
2022/09/14 02:39:48;;;;;;;5.70;3.80;;;;;;;;;;5053303;28;20290;-75
2022/09/14 02:42:21;;;;;;;5.60;3.57;;;;;;;;;;5053380;28;20573;-74
2022/09/14 02:44:55;;;;;;;6.30;4.20;;;;;;;;;;5053611;28;20248;-75
2022/09/14 02:47:27;;;;;;;5.63;3.60;;;;;;;;;;5053596;28;20632;-74
2022/09/14 02:50:02;;;;;;;4.93;4.00;;;;;;;;;;5052968;28;20234;-75
2022/09/14 02:52:33;;;;;;;5.43;3.83;;;;;;;;;;5033200;28;20321;-75
2022/09/14 02:55:05;;;;;;;4.43;3.53;;;;;;;;;;5039144;28;20278;-75
2022/09/14 02:57:34;;;;;;;9.93;4.63;;;;;;;;;;5059631;28;20286;-75
2022/09/14 03:00:02;;;;;;;7.37;4.17;;;;;;;;;;5056185;28;20231;-75
2022/09/14 03:02:31;;;;;;;6.60;4.37;;;;;;;;;;5052998;28;20218;-75
2022/09/14 03:05:00;;;;;;;6.87;4.10;;;;;;;;;;5052850;28;20314;-74
2022/09/14 03:07:29;;;;;;;6.17;3.70;;;;;;;;;;5052932;28;20238;-74
2022/09/14 03:09:57;;;;;;;7.23;3.70;;;;;;;;;;5053101;28;20243;-74
2022/09/14 03:12:26;;;;;;;8.40;3.90;;;;;;;;;;5050361;28;20326;-74
2022/09/14 03:14:54;;;;;;;8.37;3.90;;;;;;;;;;5032889;28;20243;-74
2022/09/14 03:17:22;;;;;;;5.47;3.93;;;;;;;;;;5043283;28;20286;-74
2022/09/14 03:19:51;;;;;;;4.70;3.70;;;;;;;;;;5052961;28;20241;-74
2022/09/14 03:22:20;;;;;;;6.47;3.80;;;;;;;;;;5052742;28;20227;-75
2022/09/14 03:24:49;;;;;;;8.30;4.50;;;;;;;;;;5052858;28;20258;-74
2022/09/14 03:27:17;;;;;;;8.43;4.00;;;;;;;;;;5053005;28;20684;-75
2022/09/14 03:29:47;;;;;;;7.97;4.00;;;;;;;;;;5051948;28;20285;-75
2022/09/14 03:32:15;;;;;;;5.77;4.33;;;;;;;;;;5055627;28;20318;-74
2022/09/14 03:34:43;;;;;;;5.83;3.90;;;;;;;;;;5057509;28;20233;-74
2022/09/14 03:37:12;;;;;;;6.27;3.60;;;;;;;;;;5039669;28;20307;-77
2022/09/14 03:39:42;;;;;;;5.17;3.60;;;;;;;;;;5037827;28;20294;-76
2022/09/14 03:42:10;;;;;;;6.13;4.00;;;;;;;;;;5037920;28;20733;-76
2022/09/14 03:44:39;;;;;;;6.57;3.63;;;;;;;;;;5037278;28;20318;-77
2022/09/14 03:47:07;;;;;;;4.50;3.37;;;;;;;;;;5046322;28;20290;-77
2022/09/14 03:49:36;;;;;;;5.80;3.40;;;;;;;;;;5057399;28;20242;-77
2022/09/14 03:52:04;;;;;;;5.50;3.00;;;;;;;;;;5057311;28;20312;-75
2022/09/14 03:54:33;;;;;;;3.73;3.13;;;;;;;;;;5057058;28;20204;-76
2022/09/14 03:57:02;;;;;;;4.90;3.57;;;;;;;;;;5057183;28;20243;-76
2022/09/14 03:59:31;;;;;;;3.90;2.90;;;;;;;;;;5056713;28;20223;-76
2022/09/14 04:01:59;;;;;;;6.17;3.50;;;;;;;;;;5057184;28;20249;-76
2022/09/14 04:04:28;;;;;;;5.97;3.40;;;;;;;;;;5057012;28;20707;-77
2022/09/14 04:06:56;;;;;;;4.03;3.17;;;;;;;;;;5056690;28;20626;-75
2022/09/14 04:09:25;;;;;;;6.20;3.40;;;;;;;;;;5056080;28;20201;-76
2022/09/14 04:11:53;;;;;;;7.23;3.63;;;;;;;;;;5056349;28;20231;-76
2022/09/14 04:14:23;;;;;;;5.63;3.20;;;;;;;;;;5056583;28;20600;-77
2022/09/14 04:16:52;;;;;;;6.33;3.23;;;;;;;;;;5056727;28;20655;-76
2022/09/14 04:19:20;;;;;;;6.73;3.60;;;;;;;;;;5056706;28;20615;-77
2022/09/14 04:21:49;;;;;;;5.07;3.30;;;;;;;;;;5056364;28;20226;-76
2022/09/14 04:24:17;;;;;;;5.67;3.47;;;;;;;;;;5056188;28;20303;-76
2022/09/14 04:26:46;;;;;;;6.93;3.73;;;;;;;;;;5054537;28;20207;-76
2022/09/14 04:29:15;;;;;;;6.03;3.20;;;;;;;;;;5049451;28;20235;-76
2022/09/14 04:31:44;;;;;;;6.03;3.20;;;;;;;;;;5056405;28;20265;-75
2022/09/14 04:34:13;;;;;;;4.27;3.37;;;;;;;;;;5056760;28;20214;-75
2022/09/14 04:36:42;;;;;;;3.87;3.30;;;;;;;;;;5056349;28;20203;-76
2022/09/14 04:39:12;;;;;;;5.23;3.23;;;;;;;;;;5056098;28;20250;-76
2022/09/14 04:41:41;;;;;;;3.97;3.00;;;;;;;;;;5056238;28;20227;-77
2022/09/14 04:44:09;;;;;;;6.50;3.50;;;;;;;;;;5055396;28;20338;-76
2022/09/14 04:46:38;;;;;;;8.83;3.47;;;;;;;;;;5056048;28;20630;-76
2022/09/14 04:49:14;;;;;;;6.27;3.17;;;;;;;;;;5055736;28;20203;-76
2022/09/14 04:51:42;;;;;;;5.63;2.93;;;;;;;;;;5055900;28;20223;-77
2022/09/14 04:54:14;;;;;;;9.23;3.30;;;;;;;;;;5055032;28;20287;-76
2022/09/14 04:56:44;;;;;;;6.50;3.13;;;;;;;;;;5040568;28;20290;-77
2022/09/14 04:59:14;;;;;;;6.80;3.10;;;;;;;;;;5055992;28;20207;-76
2022/09/14 05:01:43;;;;;;;4.20;3.10;;;;;;;;;;5055781;28;20273;-77
2022/09/14 05:04:12;;;;;;;6.27;3.20;;;;;;;;;;5050040;28;20274;-76
2022/09/14 05:06:44;;;;;;;10.03;3.10;;;;;;;;;;5035206;28;20302;-76
2022/09/14 05:09:14;;;;;;;8.13;3.33;;;;;;;;;;5054355;28;20223;-77
2022/09/14 05:11:42;;;;;;;7.57;3.50;;;;;;;;;;5054881;28;20773;-76
2022/09/14 05:14:12;;;;;;;7.10;3.40;;;;;;;;;;5053777;28;20218;-77
2022/09/14 05:16:42;;;;;;;5.50;3.67;;;;;;;;;;5053475;28;20199;-76
2022/09/14 05:19:13;;;;;;;4.77;3.33;;;;;;;;;;5055394;28;20286;-77
2022/09/14 05:21:43;;;;;;;7.13;3.40;;;;;;;;;;5053598;28;20572;-76
2022/09/14 05:24:13;;;;;;;5.37;3.63;;;;;;;;;;5054184;28;20286;-76
2022/09/14 05:26:42;;;;;;;6.93;3.20;;;;;;;;;;5055275;28;20199;-76
2022/09/14 05:29:12;;;;;;;8.13;3.80;;;;;;;;;;5054492;28;20302;-76
2022/09/14 05:31:41;;;;;;;9.87;4.27;;;;;;;;;;5055464;28;20722;-77
2022/09/14 05:34:10;;;;;;;7.17;3.50;;;;;;;;;;5055106;28;20203;-77
2022/09/14 05:36:38;;;;;;;7.07;3.70;;;;;;;;;;5054957;28;20215;-78
2022/09/14 05:39:08;;;;;;;4.90;3.40;;;;;;;;;;5054434;28;20301;-77
2022/09/14 05:41:37;;;;;;;6.43;3.43;;;;;;;;;;5036333;28;20232;-78
2022/09/14 05:44:06;;;;;;;5.27;3.33;;;;;;;;;;5054750;28;20207;-77
2022/09/14 05:46:35;;;;;;;10.03;3.43;;;;;;;;;;5054498;28;20334;-77
2022/09/14 05:49:03;;;;;;;9.93;3.70;;;;;;;;;;5054706;28;20203;-77
2022/09/14 05:51:32;;;;;;;7.30;3.40;;;;;;;;;;5034094;28;20273;-76
2022/09/14 05:54:00;;;;;;;4.63;3.20;;;;;;;;;;5038774;28;20257;-77
2022/09/14 05:56:31;;;;;;;5.70;3.70;;;;;;;;;;5053001;28;20290;-77
2022/09/14 05:58:59;;;;;;;10.17;3.90;;;;;;;;;;5054158;28;20192;-77
2022/09/14 06:01:29;;;;;;;3.73;3.43;;;;;;;;;;5054194;28;20258;-77
2022/09/14 06:04:00;;;;;;;7.77;4.33;;;;;;;;;;5054259;28;20218;-77
2022/09/14 06:06:29;;;;;;;5.37;3.60;;;;;;;;;;5054079;28;20254;-77
2022/09/14 06:08:58;;;;;;;6.30;4.17;;;;;;;;;;5054155;28;20208;-77
2022/09/14 06:11:27;;;;;;;7.20;3.93;;;;;;;;;;5053805;28;20315;-78
2022/09/14 06:13:57;;;;;;;8.53;4.00;;;;;;;;;;5054510;28;20226;-77
2022/09/14 06:16:27;;;;;;;7.90;4.10;;;;;;;;;;5053974;28;20180;-77
2022/09/14 06:18:56;;;;;;;5.03;4.27;;;;;;;;;;5054430;28;20252;-77
2022/09/14 06:21:27;;;;;;;7.47;4.50;;;;;;;;;;5053864;28;20254;-77
2022/09/14 06:23:56;;;;;;;6.90;5.20;;;;;;;;;;5053929;28;20238;-78
2022/09/14 06:26:24;;;;;;;9.60;5.00;;;;;;;;;;5053873;28;20230;-77
2022/09/14 06:28:53;;;;;;;8.40;4.47;;;;;;;;;;5054237;28;20230;-77
2022/09/14 06:31:24;;;;;;;6.13;5.10;;;;;;;;;;5054115;28;20226;-77
2022/09/14 06:33:52;;;;;;;7.40;4.90;;;;;;;;;;5053944;28;20241;-77
2022/09/14 06:36:21;;;;;;;7.07;5.27;;;;;;;;;;5054020;28;20265;-77
2022/09/14 06:38:50;;;;;;;7.50;5.50;;;;;;;;;;5039494;28;20235;-77
2022/09/14 06:41:20;;;;;;;7.63;4.80;;;;;;;;;;5043713;28;20306;-77
2022/09/14 06:43:49;;;;;;;8.27;5.40;;;;;;;;;;5053992;28;20234;-77
2022/09/14 06:46:18;;;;;;;6.27;4.90;;;;;;;;;;5053496;28;20253;-77
2022/09/14 06:48:49;;;;;;;8.60;4.67;;;;;;;;;;5053295;28;20302;-76
2022/09/14 06:51:19;;;;;;;6.03;5.13;;;;;;;;;;5053445;28;20254;-77
2022/09/14 06:53:48;;;;;;;7.73;4.50;;;;;;;;;;5053529;28;20192;-76
2022/09/14 06:56:17;;;;;;;9.77;4.67;;;;;;;;;;5053809;28;20668;-77
2022/09/14 06:58:46;;;;;;;10.50;4.60;;;;;;;;;;5053616;28;20294;-77
2022/09/14 07:01:16;;;;;;;6.57;4.33;;;;;;;;;;5053222;28;20227;-77
2022/09/14 07:03:45;;;;;;;9.13;4.50;;;;;;;;;;5054229;28;20210;-77
2022/09/14 07:06:16;;;;;;;10.03;4.50;;;;;;;;;;5052895;28;20249;-76
2022/09/14 07:08:45;;;;;;;9.93;4.77;;;;;;;;;;5050747;28;20250;-77
2022/09/14 07:11:14;;;;;;;7.87;4.60;;;;;;;;;;5033402;28;20251;-77
2022/09/14 07:13:42;;;;;;;9.37;4.50;;;;;;;;;;5042301;28;20261;-77
2022/09/14 07:16:11;;;;;;;6.23;4.40;;;;;;;;;;5053637;28;20596;-77
2022/09/14 07:18:40;;;;;;;6.23;4.27;;;;;;;;;;5053692;28;20203;-77
2022/09/14 07:21:09;;;;;;;5.63;4.00;;;;;;;;;;5053637;28;20314;-77
2022/09/14 07:23:39;;;;;;;8.30;5.10;;;;;;;;;;5053938;28;20261;-77
2022/09/14 07:26:09;;;;;;;5.53;4.00;;;;;;;;;;5053970;28;20664;-78
2022/09/14 07:28:38;;;;;;;9.47;4.67;;;;;;;;;;5053555;28;20603;-77
2022/09/14 07:31:14;;;;;;;7.37;3.90;;;;;;;;;;5053522;28;20272;-77
2022/09/14 07:33:42;;;;;;;5.73;4.20;;;;;;;;;;5053510;28;20255;-78
2022/09/14 07:36:12;;;;;;;9.27;4.23;;;;;;;;;;5053471;28;20203;-78
2022/09/14 07:38:42;;;;;;;6.20;3.90;;;;;;;;;;5053558;28;20229;-78
2022/09/14 07:41:31;;;;;;;4.57;3.97;;;;;;;;;;5053397;28;20325;-76
2022/09/14 07:44:00;;;;;;;8.70;3.87;;;;;;;;;;5053096;28;20234;-77
2022/09/14 07:46:29;;;;;;;5.30;3.67;;;;;;;;;;5053172;28;20628;-77
2022/09/14 07:48:58;;;;;;;10.47;4.20;;;;;;;;;;5053570;28;20234;-78
2022/09/14 07:51:27;;;;;;;8.57;4.03;;;;;;;;;;5053443;28;20293;-77
2022/09/14 07:53:57;;;;;;;9.10;4.40;;;;;;;;;;5053372;28;20625;-77
2022/09/14 07:56:26;;;;;;;7.30;4.07;;;;;;;;;;5053355;28;20250;-78
2022/09/14 07:58:54;;;;;;;8.30;4.20;;;;;;;;;;5053855;28;20542;-78
2022/09/14 08:01:44;;;;;;;8.83;4.63;;;;;;;;;;5053218;28;20223;-77
2022/09/14 08:04:12;;;;;;;9.40;3.83;;;;;;;;;;5053662;28;20724;-78
2022/09/14 08:06:41;;;;;;;7.07;3.60;;;;;;;;;;5053863;28;20309;-78
2022/09/14 08:09:10;;;;;;;6.90;4.20;;;;;;;;;;5053724;28;20299;-78
2022/09/14 08:11:39;;;;;;;7.97;3.97;;;;;;;;;;5053325;28;20762;-77
2022/09/14 08:14:10;;;;;;;6.40;3.93;;;;;;;;;;5052650;28;20254;-77
2022/09/14 08:16:39;;;;;;;6.33;3.33;;;;;;;;;;5052775;28;20195;-77
2022/09/14 08:19:09;;;;;;;6.67;3.43;;;;;;;;;;5054913;28;20207;-77
2022/09/14 08:21:38;;;;;;;7.73;3.00;;;;;;;;;;5056678;28;20698;-77
2022/09/14 08:24:15;;;;;;;4.40;3.30;;;;;;;;;;5056382;28;20193;-77
2022/09/14 08:26:44;;;;;;;6.20;2.57;;;;;;;;;;5056241;28;20594;-77
2022/09/14 08:29:12;;;;;;;8.00;2.73;;;;;;;;;;5056442;28;20230;-76
2022/09/14 08:31:42;;;;;;;6.97;3.03;;;;;;;;;;5056596;28;20258;-77
2022/09/14 08:34:10;;;;;;;9.63;3.00;;;;;;;;;;5056389;28;20289;-77
2022/09/14 08:36:40;;;;;;;7.15;2.38;;;;;;;;;;5056341;28;20290;-77
2022/09/14 08:39:09;;;;;;;3.92;2.40;;;;;;;;;;5056449;28;20274;-77
2022/09/14 08:41:41;;;;;;;4.57;1.95;;;;;;;;;;5056011;28;20226;-77
2022/09/14 08:44:15;;;;;;;6.18;2.20;;;;;;;;;;5056006;28;20239;-77
2022/09/14 08:46:46;;;;;;;8.35;2.58;;;;;;;;;;5056567;28;20246;-77
2022/09/14 08:49:16;;;;;;;7.15;2.17;;;;;;;;;;5056583;28;20254;-77
2022/09/14 08:51:45;;;;;;;4.60;1.90;;;;;;;;;;5056009;28;20306;-77
2022/09/14 08:54:13;;;;;;;6.00;2.10;;;;;;;;;;5056411;28;20199;-77
2022/09/14 08:56:44;;;;;;;7.60;1.92;;;;;;;;;;5056300;28;20195;-78
2022/09/14 08:59:20;;;;;;;7.80;1.92;;;;;;;;;;5056287;28;20191;-77
2022/09/14 09:01:52;;;;;;;5.22;1.80;;;;;;;;;;5056097;28;20258;-77
2022/09/14 09:04:25;;;;;;;4.45;1.70;;;;;;;;;;5056300;28;20242;-77
2022/09/14 09:06:56;;;;;;;7.85;1.90;;;;;;;;;;5055868;28;20632;-77
2022/09/14 09:09:30;;;;;;;6.97;2.15;;;;;;;;;;5055592;28;20183;-77
2022/09/14 09:12:00;;;;;;;5.10;1.85;;;;;;;;;;5055779;28;20234;-78
2022/09/14 09:14:31;;;;;;;7.50;1.65;;;;;;;;;;5055733;28;20294;-77
2022/09/14 09:17:01;;;;;;;5.90;1.73;;;;;;;;;;5055869;28;20191;-77
2022/09/14 09:19:33;;;;;;;6.70;1.83;;;;;;;;;;5055986;28;20234;-77
2022/09/14 09:22:04;;;;;;;6.85;1.50;;;;;;;;;;5055624;28;20271;-77
2022/09/14 09:24:34;;;;;;;7.82;1.75;;;;;;;;;;5055706;28;20195;-77
2022/09/14 09:27:09;;;;;;;5.70;1.90;;;;;;;;;;5055126;28;20215;-78
2022/09/14 09:29:37;;;;;;;5.03;1.70;;;;;;;;;;5054901;28;20223;-77
2022/09/14 09:32:08;;;;;;;4.85;1.40;;;;;;;;;;5055281;28;20265;-77
2022/09/14 09:34:36;;;;;;;5.22;1.67;;;;;;;;;;5054744;28;20199;-75
2022/09/14 09:37:05;;;;;;;4.72;1.67;;;;;;;;;;5054807;28;20293;-75
2022/09/14 09:39:34;;;;;;;5.95;1.70;;;;;;;;;;5054441;28;20282;-75
2022/09/14 09:42:07;;;;;;;5.32;1.73;;;;;;;;;;5053883;28;20268;-75
2022/09/14 09:44:53;;;;;;;6.03;1.70;;;;;;;;;;5054935;28;20684;-75
2022/09/14 09:47:30;;;;;;;5.38;1.35;;;;;;;;;;5054280;28;20233;-75
2022/09/14 09:50:00;;;;;;;5.03;1.45;;;;;;;;;;5054787;28;20207;-75
2022/09/14 09:52:29;;;;;;;6.93;1.60;;;;;;;;;;5054306;28;20251;-75
2022/09/14 09:55:01;;;;;;;5.28;1.70;;;;;;;;;;5037504;28;20605;-75
2022/09/14 09:57:30;;;;;;;6.15;1.80;;;;;;;;;;5034528;28;20204;-75
2022/09/14 10:00:12;;;;;;;7.47;1.80;;;;;;;;;;5034454;28;20326;-74
2022/09/14 10:02:40;;;;;;;5.22;1.45;;;;;;;;;;5044476;28;20251;-75
2022/09/14 10:05:20;;;;;;;3.78;1.08;;;;;;;;;;5053913;28;20289;-75
2022/09/14 10:07:56;;;;;;;7.28;1.67;;;;;;;;;;5054087;28;20653;-75
2022/09/14 10:10:26;;;;;;;6.47;1.38;;;;;;;;;;5034187;28;20199;-74
2022/09/14 10:12:56;;;;;;;5.57;1.80;;;;;;;;;;5046241;28;20238;-74
2022/09/14 10:15:26;;;;;;;2.38;1.15;;;;;;;;;;5053802;28;20253;-75
2022/09/14 10:18:03;;;;;;;6.10;1.42;;;;;;;;;;5054119;28;20226;-75
2022/09/14 10:20:32;;;;;;;4.93;1.58;;;;;;;;;;5053773;28;20207;-75
2022/09/14 10:23:15;;;;;;;4.25;1.35;;;;;;;;;;5053190;28;20719;-75
2022/09/14 10:25:43;;;;;;;5.53;1.83;;;;;;;;;;5053653;28;20184;-75
2022/09/14 10:28:21;;;;;;;3.22;1.35;;;;;;;;;;5053589;28;20318;-75
2022/09/14 10:30:54;;;;;;;5.38;1.48;;;;;;;;;;5053524;28;20281;-74
2022/09/14 10:33:23;;;;;;;6.45;1.40;;;;;;;;;;5053739;28;20734;-74
2022/09/14 10:35:55;;;;;;;5.93;1.55;;;;;;;;;;5053710;28;20290;-74
2022/09/14 10:38:29;;;;;;;6.75;1.50;;;;;;;;;;5048873;28;20196;-75
2022/09/14 10:41:03;;;;;;;3.95;1.50;;;;;;;;;;5032865;28;20285;-75
2022/09/14 10:43:37;;;;;;;4.45;1.35;;;;;;;;;;5033915;28;20271;-75
2022/09/14 10:46:13;;;;;;;3.95;1.30;;;;;;;;;;5033391;28;20230;-74
2022/09/14 10:48:47;;;;;;;6.82;1.75;;;;;;;;;;5038904;28;20286;-75
2022/09/14 10:51:24;;;;;;;6.80;1.30;;;;;;;;;;5053231;28;20231;-74
2022/09/14 10:53:56;;;;;;;5.72;1.50;;;;;;;;;;5053638;28;20261;-75
2022/09/14 10:56:27;;;;;;;4.95;1.48;;;;;;;;;;5053273;28;20249;-75
2022/09/14 10:59:04;;;;;;;5.43;1.58;;;;;;;;;;5033357;28;20287;-74
2022/09/14 11:01:41;;;;;;;6.97;1.65;;;;;;;;;;5033301;28;20231;-74
2022/09/14 11:04:17;;;;;;;5.47;1.38;;;;;;;;;;5050931;28;20203;-74
2022/09/14 11:06:49;;;;;;;4.35;1.70;;;;;;;;;;5052665;28;20595;-75
2022/09/14 11:09:22;;;;;;;5.88;1.50;;;;;;;;;;5052620;28;20749;-75
2022/09/14 11:11:55;;;;;;;5.47;1.52;;;;;;;;;;5052724;28;20230;-75
2022/09/14 11:14:35;;;;;;;5.85;1.70;;;;;;;;;;5052835;28;20294;-75
2022/09/14 11:17:15;;;;;;;2.35;1.38;;;;;;;;;;5048162;28;20282;-75
2022/09/14 11:19:48;;;;;;;3.88;1.45;;;;;;;;;;5052775;28;20195;-74
2022/09/14 11:22:20;;;;;;;2.92;1.35;;;;;;;;;;5052966;28;20227;-75
2022/09/14 11:24:52;;;;;;;4.85;1.23;;;;;;;;;;5052863;28;20195;-75
2022/09/14 11:27:25;;;;;;;5.00;1.45;;;;;;;;;;5053025;28;20271;-74
2022/09/14 11:29:56;;;;;;;3.72;1.20;;;;;;;;;;5053191;28;20612;-74
2022/09/14 11:32:29;;;;;;;5.57;1.35;;;;;;;;;;5052841;28;20609;-74
2022/09/14 11:34:59;;;;;;;4.15;1.20;;;;;;;;;;5052613;28;20187;-75
2022/09/14 11:37:31;;;;;;;2.45;1.00;;;;;;;;;;5052413;28;20246;-75
2022/09/14 11:40:03;;;;;;;4.47;1.50;;;;;;;;;;5052790;28;20242;-74
2022/09/14 11:42:34;;;;;;;4.00;1.45;;;;;;;;;;5052614;28;20255;-74
2022/09/14 11:45:06;;;;;;;6.47;1.40;;;;;;;;;;5053070;28;20203;-75
2022/09/14 11:47:38;;;;;;;2.90;1.10;;;;;;;;;;5051876;28;20234;-75
2022/09/14 11:50:14;;;;;;;3.42;1.13;;;;;;;;;;5052675;28;20664;-75
2022/09/14 11:52:43;;;;;;;3.20;1.40;;;;;;;;;;5053246;28;20223;-75
2022/09/14 11:55:15;;;;;;;3.90;1.35;;;;;;;;;;5050647;28;20198;-75
2022/09/14 11:57:45;;;;;;;5.63;1.52;;;;;;;;;;5055269;28;20245;-75
2022/09/14 12:00:29;;;;;;;4.30;1.25;;;;;;;;;;5047431;28;20207;-75
2022/09/14 12:03:13;;;;;;;3.42;1.63;;;;;;;;;;5023446;28;20309;-74
2022/09/14 12:05:43;;;;;;;5.13;1.40;;;;;;;;;;5056476;28;20581;-74
2022/09/14 12:08:30;;;;;;;3.55;1.23;;;;;;;;;;5055900;28;20274;-74
2022/09/14 12:10:59;;;;;;;4.32;1.40;;;;;;;;;;5051614;28;20884;-75
2022/09/14 12:13:28;;;;;;;5.15;1.55;;;;;;;;;;5051416;28;20337;-74
2022/09/14 12:16:03;;;;;;;3.30;1.13;;;;;;;;;;5055697;28;20203;-75
2022/09/14 12:18:35;;;;;;;7.00;1.65;;;;;;;;;;5054607;28;20203;-75
2022/09/14 12:21:06;;;;;;;3.33;1.33;;;;;;;;;;5049156;28;20302;-75
2022/09/14 12:23:45;;;;;;;3.63;1.35;;;;;;;;;;5036471;28;20212;-74
2022/09/14 12:26:25;;;;;;;4.47;1.40;;;;;;;;;;5036489;28;20228;-75
2022/09/14 12:28:55;;;;;;;5.00;1.50;;;;;;;;;;5053643;28;20302;-75
2022/09/14 12:31:34;;;;;;;4.10;1.35;;;;;;;;;;5054786;28;20699;-75
2022/09/14 12:34:24;;;;;;;3.55;1.38;;;;;;;;;;5060550;28;20203;-75
2022/09/14 12:37:13;;;;;;;5.03;1.67;;;;;;;;;;5054108;28;20290;-74
2022/09/14 12:40:03;;;;;;;5.38;1.30;;;;;;;;;;4705144;28;10000345;-75
2022/09/14 12:42:32;;;;;;;3.90;1.30;;;;;;;;;;5052710;28;20222;-75
2022/09/14 12:45:22;;;;;;;4.60;1.40;;;;;;;;;;5053762;28;20286;-75
2022/09/14 12:47:51;;;;;;;3.22;1.23;;;;;;;;;;5053055;28;20290;-75
2022/09/14 12:50:21;;;;;;;2.28;1.20;;;;;;;;;;5064966;28;20253;-74
2022/09/14 12:52:54;;;;;;;4.53;1.25;;;;;;;;;;5052768;28;20272;-77
2022/09/14 12:55:33;;;;;;;6.00;1.25;;;;;;;;;;5054004;28;20198;-77
2022/09/14 12:58:04;;;;;;;6.18;1.67;;;;;;;;;;5053603;28;20294;-77
2022/09/14 13:00:35;;;;;;;3.38;1.15;;;;;;;;;;5053717;28;20287;-77
2022/09/14 13:03:15;;;;;;;4.75;1.42;;;;;;;;;;5034237;28;20317;-77
2022/09/14 13:05:45;;;;;;;4.20;1.25;;;;;;;;;;5049695;28;20281;-75
2022/09/14 13:08:13;;;;;;;3.75;1.30;;;;;;;;;;5053489;28;20297;-77
2022/09/14 13:10:47;;;;;;;5.53;1.60;;;;;;;;;;5053919;28;20207;-76
2022/09/14 13:13:17;;;;;;;4.78;1.20;;;;;;;;;;5053546;28;20211;-76
2022/09/14 13:15:51;;;;;;;3.55;1.27;;;;;;;;;;5053226;28;20253;-75
2022/09/14 13:18:31;;;;;;;4.75;1.30;;;;;;;;;;5053739;28;20644;-76
2022/09/14 13:21:01;;;;;;;3.20;1.00;;;;;;;;;;5050752;28;20211;-76
2022/09/14 13:23:32;;;;;;;3.22;1.17;;;;;;;;;;5053250;28;20234;-76
2022/09/14 13:26:09;;;;;;;3.00;1.27;;;;;;;;;;5053246;28;20760;-77
2022/09/14 13:28:37;;;;;;;2.67;1.20;;;;;;;;;;5053555;28;20293;-77
2022/09/14 13:31:05;;;;;;;4.75;1.40;;;;;;;;;;5053215;28;20306;-77
2022/09/14 13:33:34;;;;;;;5.50;1.30;;;;;;;;;;5053031;28;20286;-77
2022/09/14 13:36:03;;;;;;;3.25;1.45;;;;;;;;;;5052417;28;20207;-76
2022/09/14 13:38:33;;;;;;;3.97;1.30;;;;;;;;;;5054012;28;20248;-77
2022/09/14 13:41:08;;;;;;;4.05;1.27;;;;;;;;;;5053147;28;20218;-77
2022/09/14 13:43:36;;;;;;;2.58;1.00;;;;;;;;;;5053306;28;20293;-77
2022/09/14 13:46:06;;;;;;;3.75;1.40;;;;;;;;;;5053093;28;20714;-77
2022/09/14 13:48:36;;;;;;;2.72;1.30;;;;;;;;;;5033557;28;20573;-76
2022/09/14 13:51:05;;;;;;;4.47;1.40;;;;;;;;;;5037508;28;20223;-77
2022/09/14 13:53:39;;;;;;;2.25;1.08;;;;;;;;;;5046286;28;20252;-77
2022/09/14 13:56:23;;;;;;;4.93;1.17;;;;;;;;;;5050597;28;20603;-77
2022/09/14 13:59:12;;;;;;;6.93;1.40;;;;;;;;;;5052227;28;20207;-77
2022/09/14 14:01:42;;;;;;;4.57;1.40;;;;;;;;;;5053144;28;20679;-77
2022/09/14 14:04:23;;;;;;;3.75;1.30;;;;;;;;;;5051385;28;20205;-77
2022/09/14 14:06:59;;;;;;;2.55;1.10;;;;;;;;;;5050646;28;20211;-76
2022/09/14 14:09:41;;;;;;;4.50;1.35;;;;;;;;;;5050602;28;20743;-74
2022/09/14 14:12:12;;;;;;;3.35;1.20;;;;;;;;;;5048380;28;20703;-77
2022/09/14 14:14:40;;;;;;;3.75;1.10;;;;;;;;;;5046727;28;20633;-76
2022/09/14 14:17:26;;;;;;;4.47;1.33;;;;;;;;;;5044721;28;20250;-76
2022/09/14 14:19:56;;;;;;;5.38;1.30;;;;;;;;;;5049127;28;20206;-76
2022/09/14 14:22:27;;;;;;;6.97;1.63;;;;;;;;;;5045464;28;20592;-76
2022/09/14 14:24:57;;;;;;;2.63;1.00;;;;;;;;;;5050381;28;20227;-77
2022/09/14 14:27:43;;;;;;;4.75;1.75;;;;;;;;;;5051114;28;20218;-76
2022/09/14 14:30:14;;;;;;;4.53;1.30;;;;;;;;;;5041334;28;20227;-76
2022/09/14 14:32:44;;;;;;;5.22;1.52;;;;;;;;;;5049448;28;20245;-76
2022/09/14 14:35:15;;;;;;;3.33;1.20;;;;;;;;;;5043633;28;20207;-76
2022/09/14 14:37:46;;;;;;;4.65;1.30;;;;;;;;;;5050037;28;20206;-77
2022/09/14 14:40:16;;;;;;;6.05;1.50;;;;;;;;;;5050428;28;20200;-79
2022/09/14 14:42:47;;;;;;;3.45;1.50;;;;;;;;;;5051234;28;20222;-76
2022/09/14 14:45:18;;;;;;;3.95;1.35;;;;;;;;;;5051605;28;20613;-76
2022/09/14 14:47:51;;;;;;;2.65;1.10;;;;;;;;;;5049735;28;20755;-76
2022/09/14 14:50:22;;;;;;;3.78;1.38;;;;;;;;;;5052915;28;20218;-77
2022/09/14 14:52:52;;;;;;;2.85;1.20;;;;;;;;;;5052898;28;20234;-76
2022/09/14 14:55:22;;;;;;;4.45;1.30;;;;;;;;;;5052670;28;20199;-76
2022/09/14 14:57:54;;;;;;;4.22;1.58;;;;;;;;;;5052695;28;20245;-77
2022/09/14 15:00:23;;;;;;;6.57;1.50;;;;;;;;;;5052643;28;20191;-77
2022/09/14 15:02:53;;;;;;;4.22;1.55;;;;;;;;;;5051470;28;20702;-77
2022/09/14 15:05:24;;;;;;;4.18;1.33;;;;;;;;;;5047746;28;20226;-77
2022/09/14 15:07:54;;;;;;;4.57;1.40;;;;;;;;;;5053105;28;20202;-77